OICK

Khorramabad Airport

Airport
ICAO code
OICK
IATA Code
KHD
Summary
ICAO Region
MID
ICAO Territory
Location

Khorramabad, Lorstan Province

Serving
Khorramabad
Elevation
3782 ft
Coordinates
33° 26' 18" N , 48° 17' 9" E
KCC
Metar
Observation
OICK 041500Z VRB02KT CAVOK 11/03 Q1018 A3009
Station
Khorram Abad
Date/Time
2022-12-04 15:00:00
Wind speed
02 kts
Lowest cloud amount
clouds and visibility OK
Temperature
11°C
Dew point
3°C
Humidity
57%
QNH
1018 hPa
Weather condition
n/a

Airport serving the city of Khorramabad, Iran.

Climatology

Semi-arid climate (Köppen climate classification BSh).

Runways

Designator Length Width Surface Rops
11/29 3200 45 ASP No/No

Airport map

Aerial View

SKYbrary Partners:

Safety knowledge contributed by: